Time;durP1;ratioP1;P1;durP2;ratioP2;P2;SDS_P1;SDS_P2;PMS_P1;PMS_P2;Temp;Humidity;BMP_temperature;BMP_pressure;BME280_temperature;BME280_humidity;BME280_pressure;Samples;Min_cycle;Max_cycle;Signal;HPM_P1;HPM_P2
2023/06/26 00:01:40;;;;;;;10.25;6.18;;;16.50;97.20;;;;;;5010767;28;20042;-60
2023/06/26 00:04:07;;;;;;;8.35;5.63;;;16.40;97.50;;;;;;5043022;28;20095;-58
2023/06/26 00:06:34;;;;;;;9.85;6.35;;;16.40;97.30;;;;;;5011081;28;20033;-58
2023/06/26 00:09:01;;;;;;;8.95;5.50;;;16.40;97.70;;;;;;5012646;28;20046;-57
2023/06/26 00:11:30;;;;;;;11.95;6.72;;;16.30;97.40;;;;;;5010813;28;20049;-59
2023/06/26 00:13:57;;;;;;;10.35;6.47;;;16.40;97.60;;;;;;5012211;28;20049;-59
2023/06/26 00:16:24;;;;;;;10.48;6.28;;;16.30;97.70;;;;;;5010530;28;20052;-58
2023/06/26 00:18:51;;;;;;;11.45;7.00;;;16.30;97.90;;;;;;5012809;28;20038;-60
2023/06/26 00:21:18;;;;;;;11.02;6.18;;;16.20;97.80;;;;;;5011442;28;20034;-57
2023/06/26 00:23:45;;;;;;;11.38;6.53;;;16.20;97.90;;;;;;5012104;28;20092;-60
2023/06/26 00:26:12;;;;;;;9.85;6.15;;;16.20;98.00;;;;;;5010277;28;20127;-60
2023/06/26 00:28:39;;;;;;;9.30;5.78;;;16.20;98.00;;;;;;5011387;28;20046;-58
2023/06/26 00:31:06;;;;;;;11.43;6.28;;;16.20;98.00;;;;;;5040673;28;20052;-60
2023/06/26 00:33:33;;;;;;;10.32;6.07;;;16.20;97.90;;;;;;5011154;28;20426;-57
2023/06/26 00:35:59;;;;;;;11.40;6.68;;;16.10;98.10;;;;;;5040942;28;20510;-60
2023/06/26 00:38:26;;;;;;;10.18;5.93;;;16.10;98.40;;;;;;5035256;28;20045;-57
2023/06/26 00:40:54;;;;;;;9.45;5.90;;;16.00;98.50;;;;;;5011248;28;20056;-57
2023/06/26 00:43:22;;;;;;;10.73;6.32;;;16.00;98.60;;;;;;5011596;28;20499;-59
2023/06/26 00:45:49;;;;;;;10.48;6.45;;;16.00;98.90;;;;;;5011344;28;20376;-58
2023/06/26 00:48:16;;;;;;;11.85;7.10;;;15.90;99.10;;;;;;5012033;28;20045;-57
2023/06/26 00:50:43;;;;;;;9.30;6.28;;;15.80;99.10;;;;;;5037404;28;20060;-57
2023/06/26 00:53:11;;;;;;;10.88;6.30;;;15.90;99.20;;;;;;5010611;28;20046;-57
2023/06/26 00:55:38;;;;;;;10.82;6.00;;;15.80;99.50;;;;;;5037496;28;20695;-59
2023/06/26 00:58:05;;;;;;;10.05;5.80;;;15.80;99.60;;;;;;5009945;28;20518;-58
2023/06/26 01:00:32;;;;;;;12.48;6.22;;;15.70;99.70;;;;;;5023533;28;20048;-58
2023/06/26 01:02:59;;;;;;;8.90;6.07;;;15.70;99.70;;;;;;5011452;28;20054;-57
2023/06/26 01:05:29;;;;;;;10.68;5.85;;;15.70;99.70;;;;;;5010887;28;20046;-57
2023/06/26 01:07:58;;;;;;;10.15;6.40;;;15.70;99.70;;;;;;5010677;28;20049;-58
2023/06/26 01:10:27;;;;;;;9.32;6.35;;;15.70;99.80;;;;;;5035363;28;20046;-57
2023/06/26 01:12:54;;;;;;;10.93;6.55;;;15.70;99.90;;;;;;5042442;28;20038;-58
2023/06/26 01:15:21;;;;;;;11.60;7.07;;;15.70;99.90;;;;;;5009902;28;20144;-57
2023/06/26 01:17:51;;;;;;;9.68;6.43;;;15.70;99.90;;;;;;5025749;28;20450;-57
2023/06/26 01:20:19;;;;;;;11.60;6.97;;;15.80;99.90;;;;;;5010922;28;20060;-57
2023/06/26 01:23:26;;;;;;;11.20;6.38;;;15.70;99.90;;;;;;4993585;28;20034;-57
2023/06/26 01:26:07;;;;;;;11.23;6.68;;;15.70;99.90;;;;;;5039074;28;20038;-58
2023/06/26 01:28:37;;;;;;;10.75;6.70;;;15.70;99.90;;;;;;5009149;28;20545;-59
2023/06/26 01:31:05;;;;;;;11.40;6.70;;;15.60;99.90;;;;;;5039985;28;20042;-57
2023/06/26 01:33:32;;;;;;;11.07;6.32;;;15.50;99.90;;;;;;5008729;28;20074;-59
2023/06/26 01:35:59;;;;;;;;;;;15.50;99.90;;;;;;5003753;28;20495;-57
2023/06/26 01:38:27;;;;;;;11.52;6.57;;;15.50;99.90;;;;;;5011262;28;19925;-57
2023/06/26 01:40:56;;;;;;;17.33;6.70;;;15.40;99.90;;;;;;5033851;28;20572;-57
2023/06/26 01:43:55;;;;;;;12.27;6.30;;;15.30;99.90;;;;;;5008904;28;20053;-57
2023/06/26 01:46:27;;;;;;;11.80;6.30;;;15.20;99.90;;;;;;4995372;28;20056;-57
2023/06/26 01:49:06;;;;;;;11.05;6.38;;;15.00;99.90;;;;;;5038296;28;20474;-57
2023/06/26 01:51:41;;;;;;;12.63;6.72;;;14.80;99.90;;;;;;5010005;28;20038;-59
2023/06/26 01:54:11;;;;;;;10.82;6.65;;;14.80;99.90;;;;;;5010383;28;20068;-59
2023/06/26 01:56:39;;;;;;;11.38;6.75;;;14.60;99.90;;;;;;5034823;28;20040;-59
2023/06/26 01:59:07;;;;;;;9.68;6.65;;;14.50;99.90;;;;;;5009140;28;20068;-57
2023/06/26 02:01:34;;;;;;;11.45;7.03;;;14.50;99.90;;;;;;5009504;28;20034;-60
2023/06/26 02:04:01;;;;;;;11.48;6.65;;;14.40;99.90;;;;;;5010893;28;20054;-57
2023/06/26 02:06:30;;;;;;;13.25;7.35;;;14.50;99.90;;;;;;5029172;28;20069;-57
2023/06/26 02:08:58;;;;;;;11.80;7.43;;;14.50;99.90;;;;;;5008708;28;20046;-56
2023/06/26 02:11:25;;;;;;;11.45;7.50;;;14.60;99.90;;;;;;5040989;28;20052;-56
2023/06/26 02:13:52;;;;;;;12.80;7.78;;;14.60;99.90;;;;;;5032698;28;20045;-58
2023/06/26 02:16:19;;;;;;;13.45;7.90;;;14.60;99.90;;;;;;5012633;28;20140;-59
2023/06/26 02:18:45;;;;;;;11.30;7.05;;;14.60;99.90;;;;;;5033247;28;20066;-57
2023/06/26 02:21:13;;;;;;;13.88;6.88;;;14.50;99.90;;;;;;5013191;28;20050;-58
2023/06/26 02:23:40;;;;;;;10.93;6.75;;;14.50;99.90;;;;;;5037977;28;20325;-58
2023/06/26 02:26:07;;;;;;;12.25;7.05;;;14.40;99.90;;;;;;5013291;28;20069;-59
2023/06/26 02:28:34;;;;;;;10.43;6.55;;;14.40;99.90;;;;;;5038990;28;20133;-59
2023/06/26 02:31:01;;;;;;;;;;;14.30;99.90;;;;;;5014163;28;20042;-58
2023/06/26 02:33:28;;;;;;;10.95;6.72;;;14.10;99.90;;;;;;5011967;28;19957;-58
2023/06/26 02:35:54;;;;;;;13.55;7.65;;;14.10;99.90;;;;;;5054759;22;20406;-65
2023/06/26 02:38:21;;;;;;;11.75;7.03;;;14.00;99.90;;;;;;5052633;28;20041;-65
2023/06/26 02:40:48;;;;;;;11.57;6.82;;;14.00;99.90;;;;;;5034829;28;20041;-65
2023/06/26 02:43:16;;;;;;;12.00;6.97;;;13.80;99.90;;;;;;5034339;28;20083;-65
2023/06/26 02:45:44;;;;;;;11.98;6.47;;;13.80;99.90;;;;;;5050043;28;20033;-65
2023/06/26 02:48:10;;;;;;;11.90;7.25;;;13.70;99.90;;;;;;5052353;28;20070;-65
2023/06/26 02:50:37;;;;;;;10.05;6.30;;;13.70;99.90;;;;;;5034063;28;20037;-65
2023/06/26 02:53:12;;;;;;;13.23;6.93;;;13.70;99.90;;;;;;5052001;28;20726;-65
2023/06/26 02:55:42;;;;;;;11.02;6.82;;;13.70;99.90;;;;;;5035255;28;20048;-65
2023/06/26 02:58:09;;;;;;;11.35;7.07;;;13.70;99.90;;;;;;5050728;28;20429;-65
2023/06/26 03:00:41;;;;;;;10.13;6.47;;;13.80;99.90;;;;;;5035862;28;20037;-65
2023/06/26 03:03:10;;;;;;;13.27;6.60;;;13.80;99.90;;;;;;5033254;28;20059;-65
2023/06/26 03:05:36;;;;;;;11.45;6.47;;;13.80;99.90;;;;;;5052394;28;20559;-65
2023/06/26 03:08:04;;;;;;;14.60;7.15;;;13.80;99.90;;;;;;5047472;28;20084;-65
2023/06/26 03:10:31;;;;;;;11.77;6.70;;;13.70;99.90;;;;;;5048482;28;20045;-65
2023/06/26 03:12:59;;;;;;;;;;;13.70;99.90;;;;;;5027565;28;20049;-65
2023/06/26 03:22:47;;;;;;;10.38;6.88;;;13.60;99.90;;;;;;4971283;28;20046;-65
2023/06/26 03:25:15;;;;;;;12.25;7.20;;;13.60;99.90;;;;;;4969514;28;20046;-65
2023/06/26 03:27:42;;;;;;;13.70;8.00;;;13.60;99.90;;;;;;4972478;28;20070;-65
2023/06/26 03:30:11;;;;;;;9.38;6.38;;;13.60;99.90;;;;;;4973063;28;20053;-65
2023/06/26 03:32:40;;;;;;;11.00;6.72;;;13.50;99.90;;;;;;4990261;28;20046;-65
2023/06/26 03:35:07;;;;;;;12.13;7.35;;;13.60;99.90;;;;;;4990942;28;20042;-65
2023/06/26 03:37:34;;;;;;;;;;;13.60;99.90;;;;;;4974560;28;20042;-65
2023/06/26 03:40:01;;;;;;;12.40;7.32;;;13.70;99.90;;;;;;4994860;28;19921;-65
2023/06/26 03:42:28;;;;;;;15.20;6.68;;;13.60;99.90;;;;;;4980309;28;20034;-65
2023/06/26 03:44:55;;;;;;;12.38;6.85;;;13.70;99.90;;;;;;4997591;28;20126;-65
2023/06/26 03:47:21;;;;;;;13.27;7.03;;;13.60;99.90;;;;;;4997861;28;20078;-65
2023/06/26 03:49:48;;;;;;;16.88;7.40;;;13.60;99.90;;;;;;4979826;28;20101;-65
2023/06/26 03:52:15;;;;;;;14.55;7.25;;;13.50;99.90;;;;;;4997521;28;20046;-65
2023/06/26 03:54:42;;;;;;;12.25;6.97;;;13.40;99.90;;;;;;5000571;28;20050;-65
2023/06/26 03:57:10;;;;;;;13.35;7.00;;;13.40;99.90;;;;;;4993649;28;20055;-65
2023/06/26 03:59:37;;;;;;;11.23;7.22;;;13.40;99.90;;;;;;4997529;28;20052;-65
2023/06/26 04:02:04;;;;;;;23.48;7.53;;;13.50;99.90;;;;;;4988454;28;20046;-65
2023/06/26 04:04:31;;;;;;;11.77;6.68;;;13.50;99.90;;;;;;4999120;28;20478;-65
2023/06/26 04:06:59;;;;;;;13.15;6.90;;;13.50;99.90;;;;;;4997093;28;20124;-65
2023/06/26 04:09:26;;;;;;;12.30;7.00;;;13.60;99.90;;;;;;4993950;28;20041;-65
2023/06/26 04:11:53;;;;;;;13.50;7.25;;;13.70;99.90;;;;;;4992379;28;20046;-65
2023/06/26 04:14:20;;;;;;;12.95;7.60;;;13.50;99.90;;;;;;4993454;28;20042;-65
2023/06/26 04:16:46;;;;;;;12.23;7.35;;;13.60;99.90;;;;;;4991624;28;20120;-65
2023/06/26 04:19:13;;;;;;;13.15;7.32;;;13.80;99.90;;;;;;4993182;28;20065;-65
2023/06/26 04:21:40;;;;;;;11.75;7.05;;;13.80;99.90;;;;;;4990612;28;20038;-65
2023/06/26 04:24:07;;;;;;;12.57;7.07;;;13.90;99.90;;;;;;4991760;28;20042;-65
2023/06/26 04:26:33;;;;;;;12.13;6.97;;;14.00;99.90;;;;;;4993107;28;20499;-65
2023/06/26 04:29:01;;;;;;;14.05;7.68;;;14.10;99.90;;;;;;4991496;28;20524;-64
2023/06/26 04:31:27;;;;;;;15.40;7.82;;;14.20;99.90;;;;;;4993270;28;20058;-65
2023/06/26 04:33:55;;;;;;;12.93;7.85;;;14.20;99.90;;;;;;4991430;28;20117;-64
2023/06/26 04:36:21;;;;;;;11.95;7.70;;;14.40;99.90;;;;;;4992650;28;20050;-64
2023/06/26 04:38:49;;;;;;;18.77;8.45;;;14.40;99.90;;;;;;4991487;28;20530;-65
2023/06/26 04:41:15;;;;;;;;;;;14.50;99.90;;;;;;4993449;28;20085;-65
2023/06/26 04:43:42;;;;;;;13.15;7.72;;;14.50;99.90;;;;;;4989823;28;20395;-65
2023/06/26 04:46:09;;;;;;;15.88;7.45;;;14.50;99.90;;;;;;4993009;28;20049;-66
2023/06/26 04:48:36;;;;;;;12.13;7.55;;;14.40;99.90;;;;;;4984238;28;20399;-65
2023/06/26 04:51:03;;;;;;;14.63;7.18;;;14.40;99.90;;;;;;4992217;28;20121;-65
2023/06/26 04:53:29;;;;;;;14.30;8.65;;;14.50;99.90;;;;;;4986954;28;20037;-65
2023/06/26 04:55:56;;;;;;;14.65;7.70;;;14.50;99.90;;;;;;4995111;28;20044;-65
2023/06/26 04:58:23;;;;;;;21.13;9.15;;;14.70;99.90;;;;;;4990758;28;20043;-65
2023/06/26 05:00:50;;;;;;;16.00;8.07;;;14.70;99.90;;;;;;4989602;28;20057;-65
2023/06/26 05:03:17;;;;;;;15.77;7.90;;;14.70;99.90;;;;;;4992082;28;20058;-65
2023/06/26 05:05:45;;;;;;;12.93;7.80;;;14.70;99.90;;;;;;4995878;28;20069;-65
2023/06/26 05:08:22;;;;;;;13.38;8.05;;;14.80;99.90;;;;;;4991055;28;20408;-65
2023/06/26 05:10:49;;;;;;;14.45;8.95;;;14.90;99.90;;;;;;4991097;28;20038;-65
2023/06/26 05:13:19;;;;;;;13.85;8.25;;;15.00;99.90;;;;;;4989497;28;20165;-65
2023/06/26 05:15:46;;;;;;;14.63;8.88;;;15.00;99.90;;;;;;4990371;28;20056;-65
2023/06/26 05:18:13;;;;;;;14.88;8.35;;;15.10;99.90;;;;;;4990856;28;20042;-65
2023/06/26 05:20:41;;;;;;;12.40;8.48;;;15.20;99.90;;;;;;4991072;28;20133;-65
2023/06/26 05:23:07;;;;;;;;;;;15.30;99.90;;;;;;4991641;28;20081;-65
2023/06/26 05:25:35;;;;;;;15.13;8.32;;;15.40;99.90;;;;;;4991447;28;19921;-65
2023/06/26 05:28:04;;;;;;;17.55;8.65;;;15.50;99.90;;;;;;4991527;28;20046;-65
2023/06/26 05:30:34;;;;;;;13.95;8.43;;;15.50;99.90;;;;;;4991338;28;20038;-65
2023/06/26 05:33:02;;;;;;;14.27;8.40;;;15.60;99.90;;;;;;4989693;28;20070;-65
2023/06/26 05:35:30;;;;;;;14.38;8.60;;;15.70;99.90;;;;;;4991268;28;20048;-65
2023/06/26 05:37:59;;;;;;;15.43;8.43;;;16.00;99.90;;;;;;4990697;28;20058;-65
2023/06/26 05:40:26;;;;;;;15.43;8.98;;;16.10;99.90;;;;;;4990745;28;20062;-65
2023/06/26 05:42:53;;;;;;;16.30;9.35;;;16.10;99.90;;;;;;4990905;28;20042;-65
2023/06/26 05:45:20;;;;;;;14.20;8.15;;;16.20;99.90;;;;;;4991572;28;20046;-65
2023/06/26 05:47:47;;;;;;;17.77;8.27;;;16.20;99.90;;;;;;4989623;28;20035;-65
2023/06/26 05:50:15;;;;;;;14.55;9.20;;;16.20;99.90;;;;;;4990870;28;20046;-65
2023/06/26 05:52:43;;;;;;;17.83;8.55;;;16.40;99.90;;;;;;4990862;28;20038;-65
2023/06/26 05:55:12;;;;;;;13.38;8.35;;;16.40;99.90;;;;;;4990886;28;20117;-65
2023/06/26 05:57:41;;;;;;;14.40;8.85;;;16.40;99.90;;;;;;4973316;28;20484;-65
2023/06/26 06:00:10;;;;;;;16.52;9.13;;;16.50;99.90;;;;;;4991132;28;20484;-65
2023/06/26 06:02:42;;;;;;;12.60;8.32;;;16.60;99.90;;;;;;4990865;28;20499;-65
2023/06/26 06:05:09;;;;;;;12.15;8.13;;;16.70;99.90;;;;;;4990196;28;20121;-65
2023/06/26 06:07:36;;;;;;;14.13;9.00;;;16.90;99.90;;;;;;4990572;28;20410;-65
2023/06/26 06:10:03;;;;;;;;;;;17.00;99.90;;;;;;4991449;28;20081;-65
2023/06/26 06:12:30;;;;;;;14.65;8.27;;;17.10;99.90;;;;;;4990261;28;19922;-65
2023/06/26 06:14:57;;;;;;;17.33;9.40;;;17.20;99.90;;;;;;4989894;28;20039;-65
2023/06/26 06:17:24;;;;;;;16.05;8.52;;;17.30;99.90;;;;;;4988250;28;20045;-65
2023/06/26 06:19:51;;;;;;;15.05;9.68;;;17.30;99.90;;;;;;4990293;28;20385;-65
2023/06/26 06:22:17;;;;;;;17.27;9.07;;;17.50;99.90;;;;;;4989165;28;20523;-65
2023/06/26 06:24:44;;;;;;;18.08;8.88;;;17.60;99.90;;;;;;4989264;28;20038;-65
2023/06/26 06:27:11;;;;;;;13.52;8.93;;;17.70;99.90;;;;;;4987252;28;20057;-65
2023/06/26 06:29:38;;;;;;;13.25;9.10;;;17.90;99.90;;;;;;4990841;28;20041;-65
2023/06/26 06:32:05;;;;;;;16.00;8.88;;;18.10;99.90;;;;;;4990550;28;20064;-65
2023/06/26 06:34:32;;;;;;;15.77;8.82;;;18.40;99.90;;;;;;4988882;28;20456;-65
2023/06/26 06:36:59;;;;;;;14.65;8.25;;;18.40;99.90;;;;;;4991208;28;20057;-65
2023/06/26 06:39:26;;;;;;;15.82;8.68;;;18.50;99.90;;;;;;4990622;28;20068;-65
2023/06/26 06:41:53;;;;;;;11.60;7.82;;;18.80;99.90;;;;;;4990503;28;20475;-65
2023/06/26 06:44:21;;;;;;;17.33;8.05;;;18.90;99.90;;;;;;4988514;28;20134;-65
2023/06/26 06:46:48;;;;;;;13.93;8.93;;;19.00;99.90;;;;;;4991415;28;20052;-65
2023/06/26 06:49:15;;;;;;;13.45;8.75;;;19.10;99.90;;;;;;4989645;28;20491;-65
2023/06/26 06:51:41;;;;;;;13.45;8.40;;;19.30;99.90;;;;;;4990163;28;20053;-65
2023/06/26 06:54:08;;;;;;;15.23;8.73;;;19.40;99.90;;;;;;4989996;28;20046;-65
2023/06/26 06:56:35;;;;;;;13.95;8.63;;;19.50;99.90;;;;;;4990422;28;20045;-65
2023/06/26 06:59:02;;;;;;;14.02;9.18;;;19.50;99.90;;;;;;4991707;28;20053;-65
2023/06/26 07:01:28;;;;;;;14.70;8.02;;;19.50;99.90;;;;;;4993708;28;20047;-65
2023/06/26 07:03:55;;;;;;;16.73;8.45;;;19.40;99.90;;;;;;4993976;28;20101;-66
2023/06/26 07:06:22;;;;;;;14.70;8.10;;;19.60;99.90;;;;;;4992112;28;20531;-66
2023/06/26 07:08:49;;;;;;;14.45;8.82;;;19.60;99.90;;;;;;4994748;28;20054;-66
2023/06/26 07:11:16;;;;;;;;;;;19.80;99.90;;;;;;4994195;28;20078;-66
2023/06/26 07:13:43;;;;;;;13.65;8.32;;;19.90;99.90;;;;;;4993772;28;19922;-66
2023/06/26 07:16:14;;;;;;;16.40;8.32;;;19.80;99.90;;;;;;4992685;28;20070;-65
2023/06/26 07:18:42;;;;;;;15.77;9.38;;;19.80;99.90;;;;;;4994130;28;20047;-65
2023/06/26 07:21:08;;;;;;;;;;;19.80;99.90;;;;;;4991206;28;20081;-66
2023/06/26 07:23:35;;;;;;;19.05;8.70;;;19.80;99.90;;;;;;4993335;28;19921;-66
2023/06/26 07:26:02;;;;;;;11.98;8.43;;;19.90;99.90;;;;;;4992563;28;20042;-66
2023/06/26 07:28:29;;;;;;;14.43;8.98;;;20.00;99.90;;;;;;4993899;28;20043;-66
2023/06/26 07:30:55;;;;;;;13.98;8.30;;;20.40;99.90;;;;;;4992219;28;20061;-66
2023/06/26 07:33:22;;;;;;;11.63;8.13;;;20.50;99.90;;;;;;4993481;28;20132;-65
2023/06/26 07:35:49;;;;;;;14.00;8.15;;;20.30;99.90;;;;;;4993326;28;20123;-65
2023/06/26 07:38:16;;;;;;;12.95;8.52;;;20.60;99.90;;;;;;4992294;28;20555;-66
2023/06/26 07:40:42;;;;;;;15.40;9.00;;;20.90;99.90;;;;;;4993402;28;20043;-66
2023/06/26 07:43:09;;;;;;;12.43;8.60;;;20.90;99.90;;;;;;4993194;28;20133;-66
2023/06/26 07:45:36;;;;;;;15.65;9.30;;;20.80;99.90;;;;;;4993332;28;20130;-66
2023/06/26 07:48:03;;;;;;;15.35;8.52;;;20.90;99.90;;;;;;4992247;28;20054;-66
2023/06/26 07:50:30;;;;;;;15.23;8.57;;;20.90;99.90;;;;;;4993264;28;20507;-66
2023/06/26 07:52:56;;;;;;;13.70;8.32;;;21.00;99.90;;;;;;4991683;28;20050;-66
2023/06/26 07:55:23;;;;;;;13.77;9.45;;;21.20;99.90;;;;;;4993358;28;20043;-66
2023/06/26 07:57:52;;;;;;;12.60;8.13;;;21.40;99.90;;;;;;4992367;28;20053;-66
2023/06/26 08:00:18;;;;;;;14.70;9.18;;;21.60;99.90;;;;;;4991762;28;20042;-66
2023/06/26 08:02:45;;;;;;;15.50;8.50;;;21.60;99.90;;;;;;4992732;28;20145;-66
2023/06/26 08:05:12;;;;;;;11.32;8.15;;;21.50;99.90;;;;;;4992511;28;20049;-66
2023/06/26 08:07:39;;;;;;;17.15;9.40;;;21.50;99.90;;;;;;4992842;28;20503;-66
2023/06/26 08:10:06;;;;;;;17.00;8.43;;;21.80;99.90;;;;;;4991043;28;20515;-66
2023/06/26 08:12:33;;;;;;;11.93;8.77;;;21.90;99.90;;;;;;4992469;28;20046;-66
2023/06/26 08:15:02;;;;;;;13.48;8.50;;;21.80;99.90;;;;;;4992847;28;20042;-66
2023/06/26 08:17:29;;;;;;;12.50;8.98;;;21.70;99.90;;;;;;4991376;28;20106;-66
2023/06/26 08:19:56;;;;;;;12.88;8.55;;;21.70;99.90;;;;;;4992863;28;20491;-66
2023/06/26 08:22:23;;;;;;;12.80;9.05;;;21.90;99.90;;;;;;4989775;28;20315;-66
2023/06/26 08:24:50;;;;;;;12.82;9.18;;;22.20;99.90;;;;;;4992890;28;20038;-66
2023/06/26 08:27:17;;;;;;;12.32;8.63;;;22.50;99.90;;;;;;4992171;28;20056;-66
2023/06/26 08:29:44;;;;;;;11.98;8.90;;;22.80;99.90;;;;;;4992506;28;20038;-66
2023/06/26 08:32:10;;;;;;;12.43;8.38;;;23.30;99.90;;;;;;4991780;28;20190;-66
2023/06/26 08:34:37;;;;;;;13.82;8.52;;;23.20;99.90;;;;;;4974244;28;20414;-66
2023/06/26 08:37:04;;;;;;;14.85;9.05;;;23.20;99.90;;;;;;4992901;28;20046;-66
2023/06/26 08:39:32;;;;;;;12.82;9.30;;;23.30;99.90;;;;;;4992631;28;20050;-66
2023/06/26 08:41:59;;;;;;;14.45;8.70;;;23.20;99.90;;;;;;4991633;28;20050;-66
2023/06/26 08:44:26;;;;;;;14.07;8.70;;;23.10;99.90;;;;;;4991858;28;20057;-66
2023/06/26 08:46:53;;;;;;;14.90;9.23;;;23.00;99.90;;;;;;4992827;28;20044;-66
2023/06/26 08:49:41;;;;;;;15.80;8.55;;;23.30;99.90;;;;;;4992225;28;20054;-66
2023/06/26 08:52:17;;;;;;;11.55;8.05;;;23.50;99.90;;;;;;4985699;28;20039;-66
2023/06/26 08:54:48;;;;;;;12.88;8.80;;;23.60;99.90;;;;;;4990242;28;20056;-66
2023/06/26 08:57:18;;;;;;;13.77;9.43;;;23.70;99.90;;;;;;4990610;28;20149;-66
2023/06/26 08:59:46;;;;;;;12.90;9.30;;;24.00;99.90;;;;;;4991906;28;20050;-66
2023/06/26 09:02:13;;;;;;;15.32;9.60;;;23.80;99.90;;;;;;4989672;28;20046;-66
2023/06/26 09:04:41;;;;;;;13.43;9.15;;;23.60;99.90;;;;;;4991777;28;20042;-66
2023/06/26 09:07:08;;;;;;;14.55;9.40;;;23.60;99.90;;;;;;4990199;28;20038;-66
2023/06/26 09:09:36;;;;;;;12.73;8.65;;;23.90;99.90;;;;;;4991856;28;20406;-66
2023/06/26 09:12:03;;;;;;;12.70;9.30;;;24.20;99.90;;;;;;4991129;28;20050;-66
2023/06/26 09:14:30;;;;;;;13.40;8.82;;;24.10;99.90;;;;;;4991540;28;20070;-66
2023/06/26 09:16:56;;;;;;;13.73;9.10;;;24.20;99.90;;;;;;4990802;28;20069;-66
2023/06/26 09:19:23;;;;;;;;;;;24.70;99.90;;;;;;4991018;28;20046;-66
2023/06/26 09:21:51;;;;;;;11.73;9.00;;;25.10;99.90;;;;;;4990676;28;20366;-66
2023/06/26 09:24:18;;;;;;;15.98;8.70;;;25.10;99.90;;;;;;4990841;28;20487;-66
2023/06/26 09:26:45;;;;;;;;;;;24.80;99.90;;;;;;4991950;28;20117;-66
2023/06/26 09:29:13;;;;;;;13.02;8.30;;;24.80;99.90;;;;;;4990634;28;19928;-66
2023/06/26 09:31:40;;;;;;;11.25;8.90;;;24.80;99.90;;;;;;4991393;28;20050;-66
2023/06/26 09:34:09;;;;;;;11.50;8.90;;;25.00;99.90;;;;;;4990444;28;20077;-66
2023/06/26 09:36:36;;;;;;;13.85;9.18;;;25.50;99.90;;;;;;4990810;28;20511;-66
2023/06/26 09:39:10;;;;;;;17.42;9.32;;;25.70;99.80;;;;;;4990671;28;20405;-66
2023/06/26 09:41:38;;;;;;;11.98;9.10;;;26.10;99.90;;;;;;4990856;28;20137;-66
2023/06/26 09:44:06;;;;;;;12.10;9.07;;;26.20;99.90;;;;;;4989281;28;20503;-66
2023/06/26 09:46:33;;;;;;;10.93;8.98;;;26.20;97.70;;;;;;4990907;28;20133;-66
2023/06/26 09:49:04;;;;;;;12.65;9.20;;;26.30;98.70;;;;;;4991035;28;20047;-66
2023/06/26 09:51:35;;;;;;;11.98;8.85;;;26.40;98.80;;;;;;4990091;28;20046;-66
2023/06/26 09:54:04;;;;;;;13.05;8.90;;;26.50;99.10;;;;;;4991338;28;20046;-66
2023/06/26 09:56:32;;;;;;;10.38;8.25;;;26.70;98.10;;;;;;4991180;28;20141;-66
2023/06/26 09:59:01;;;;;;;11.32;8.48;;;26.90;97.70;;;;;;4991535;28;20069;-66
2023/06/26 10:01:28;;;;;;;11.35;9.05;;;27.10;96.90;;;;;;4989843;28;20072;-66
2023/06/26 10:03:58;;;;;;;11.85;9.07;;;27.30;97.30;;;;;;4991092;28;20526;-66
2023/06/26 10:06:33;;;;;;;10.55;8.40;;;27.50;97.20;;;;;;4990051;28;20073;-66
2023/06/26 10:09:01;;;;;;;13.73;8.63;;;27.80;97.00;;;;;;4991910;28;20039;-66
2023/06/26 10:11:54;;;;;;;11.23;8.60;;;27.90;96.60;;;;;;4990164;28;20050;-66
2023/06/26 10:14:22;;;;;;;12.05;8.60;;;28.00;96.40;;;;;;4985178;28;20058;-66
2023/06/26 10:16:50;;;;;;;13.43;8.02;;;28.30;96.00;;;;;;4991214;28;20054;-66
2023/06/26 10:19:23;;;;;;;10.95;8.35;;;28.30;95.00;;;;;;4991063;28;20069;-66
2023/06/26 10:21:53;;;;;;;10.45;7.75;;;28.50;94.20;;;;;;4989547;28;20060;-66
2023/06/26 10:24:22;;;;;;;9.57;8.02;;;28.40;93.90;;;;;;4991323;28;20042;-66
2023/06/26 10:26:52;;;;;;;9.35;7.35;;;28.50;92.60;;;;;;4990230;28;20038;-66
2023/06/26 10:29:22;;;;;;;11.00;7.50;;;28.60;93.00;;;;;;4991375;28;20041;-66
2023/06/26 10:31:52;;;;;;;8.95;7.50;;;28.60;93.10;;;;;;4989093;28;20053;-66
2023/06/26 10:34:20;;;;;;;8.07;7.25;;;28.80;91.80;;;;;;4992579;28;20057;-66
2023/06/26 10:36:48;;;;;;;11.15;8.15;;;28.90;92.30;;;;;;4994566;28;20053;-67
2023/06/26 10:39:14;;;;;;;10.95;7.78;;;29.00;93.20;;;;;;4994185;28;20129;-66
2023/06/26 10:41:42;;;;;;;10.60;7.63;;;28.90;93.20;;;;;;4994568;28;20061;-66
2023/06/26 10:44:43;;;;;;;10.02;7.55;;;28.70;91.40;;;;;;4990109;28;20042;-66
2023/06/26 10:47:11;;;;;;;8.43;6.50;;;28.40;91.70;;;;;;4994910;28;20048;-66
2023/06/26 10:49:42;;;;;;;12.32;7.32;;;28.30;92.10;;;;;;4992872;28;20506;-66
2023/06/26 10:52:09;;;;;;;10.73;7.15;;;28.60;91.30;;;;;;4993588;28;20046;-66
2023/06/26 10:54:37;;;;;;;8.52;7.32;;;29.20;90.30;;;;;;4993813;28;20097;-66
2023/06/26 10:57:07;;;;;;;8.93;7.20;;;29.50;90.40;;;;;;4994688;28;20058;-66
2023/06/26 10:59:34;;;;;;;9.02;7.43;;;29.70;90.70;;;;;;4992794;28;20499;-66
2023/06/26 11:02:05;;;;;;;8.88;7.25;;;29.60;90.30;;;;;;4993097;28;20538;-66
2023/06/26 11:04:49;;;;;;;9.03;6.83;;;29.70;90.00;;;;;;4994204;28;20050;-66
2023/06/26 11:07:21;;;;;;;10.02;7.30;;;29.90;91.20;;;;;;4993530;28;20117;-66
2023/06/26 11:09:59;;;;;;;9.82;6.85;;;29.80;89.70;;;;;;4994102;28;20050;-66
2023/06/26 11:12:40;;;;;;;10.02;7.05;;;30.00;89.20;;;;;;4993657;28;20495;-66
2023/06/26 11:15:13;;;;;;;8.73;7.05;;;30.30;88.20;;;;;;4985983;28;20084;-66
2023/06/26 11:17:44;;;;;;;10.80;7.18;;;30.00;88.50;;;;;;4993984;28;20133;-66
2023/06/26 11:20:13;;;;;;;7.88;6.43;;;29.60;90.10;;;;;;4992209;28;20052;-66
2023/06/26 11:22:41;;;;;;;9.02;6.43;;;29.70;87.50;;;;;;4993484;28;20057;-66
2023/06/26 11:25:10;;;;;;;7.50;6.60;;;30.10;86.60;;;;;;4993179;28;20043;-66
2023/06/26 11:27:43;;;;;;;9.95;6.90;;;30.40;84.70;;;;;;4994292;28;20387;-66
2023/06/26 11:30:22;;;;;;;8.68;6.63;;;30.70;84.10;;;;;;4991662;28;20125;-66
2023/06/26 11:32:48;;;;;;;7.72;6.18;;;31.00;83.20;;;;;;4992760;28;20134;-66
2023/06/26 11:35:30;;;;;;;7.70;6.40;;;31.40;82.50;;;;;;4992551;28;20046;-66
2023/06/26 11:38:00;;;;;;;8.00;6.40;;;31.70;82.80;;;;;;4993441;28;20523;-66
2023/06/26 11:40:35;;;;;;;7.18;6.45;;;31.60;83.90;;;;;;4993040;28;20054;-66
2023/06/26 11:43:03;;;;;;;9.77;6.85;;;31.30;80.30;;;;;;4980850;28;20078;-66
2023/06/26 11:45:31;;;;;;;7.32;6.25;;;31.10;81.10;;;;;;4989700;28;20077;-66
2023/06/26 11:47:59;;;;;;;6.93;6.22;;;31.10;80.60;;;;;;4993239;28;20073;-66
2023/06/26 11:50:27;;;;;;;7.53;5.63;;;31.00;80.40;;;;;;4984114;28;20050;-66
2023/06/26 11:52:58;;;;;;;6.07;5.47;;;31.00;81.60;;;;;;4988307;28;20043;-66
2023/06/26 11:55:26;;;;;;;5.95;5.05;;;31.10;84.30;;;;;;4993388;28;20050;-66
2023/06/26 11:57:54;;;;;;;5.80;5.22;;;30.90;75.30;;;;;;4993302;28;20145;-66
2023/06/26 12:00:21;;;;;;;7.75;5.72;;;30.50;75.90;;;;;;4986926;28;20042;-66
2023/06/26 12:02:49;;;;;;;7.18;6.03;;;30.10;78.60;;;;;;4992763;28;20043;-66
2023/06/26 12:05:17;;;;;;;8.13;4.57;;;29.90;81.90;;;;;;4992861;28;20050;-66
2023/06/26 12:07:47;;;;;;;6.07;4.50;;;29.30;79.20;;;;;;4993240;28;20070;-66
2023/06/26 12:10:15;;;;;;;4.90;4.40;;;28.90;78.40;;;;;;4992707;28;20030;-66
2023/06/26 12:12:42;;;;;;;11.27;4.80;;;28.70;80.30;;;;;;4991255;28;20120;-66
2023/06/26 12:15:12;;;;;;;7.03;4.40;;;29.00;77.40;;;;;;4992898;28;20046;-66
2023/06/26 12:17:39;;;;;;;6.72;4.93;;;29.60;78.30;;;;;;4992939;28;20456;-66
2023/06/26 12:20:21;;;;;;;8.40;4.75;;;29.70;83.30;;;;;;4991707;28;20057;-66
2023/06/26 12:22:48;;;;;;;6.90;4.47;;;29.40;79.70;;;;;;4992504;28;20517;-66
2023/06/26 12:25:20;;;;;;;5.90;4.82;;;29.10;80.90;;;;;;4991699;28;20038;-66
2023/06/26 12:27:47;;;;;;;7.65;4.95;;;29.40;80.90;;;;;;4993280;28;20054;-66
2023/06/26 12:30:14;;;;;;;;;;;30.20;81.70;;;;;;4992138;28;20281;-66
2023/06/26 12:32:46;;;;;;;5.78;5.07;;;30.90;76.60;;;;;;4992352;28;19922;-66
2023/06/26 12:35:13;;;;;;;6.80;4.43;;;31.20;76.10;;;;;;4990720;28;20077;-66
2023/06/26 12:37:43;;;;;;;6.25;5.30;;;31.00;75.10;;;;;;4991291;28;20455;-66
2023/06/26 12:40:19;;;;;;;4.93;4.22;;;30.70;72.60;;;;;;4992181;28;20073;-66
2023/06/26 12:42:45;;;;;;;4.80;4.30;;;30.40;76.80;;;;;;4991147;28;20034;-66
2023/06/26 12:45:13;;;;;;;;;;;30.20;74.00;;;;;;4992494;28;20054;-66
2023/06/26 12:48:13;;;;;;;8.45;4.85;;;30.70;70.10;;;;;;4991254;28;20461;-66
2023/06/26 12:50:46;;;;;;;6.28;4.82;;;30.60;71.40;;;;;;4991952;28;20057;-66
2023/06/26 12:53:13;;;;;;;5.55;4.78;;;31.10;70.70;;;;;;4990351;28;20038;-66
2023/06/26 12:55:40;;;;;;;8.90;5.18;;;31.40;67.30;;;;;;4991433;28;20039;-66
2023/06/26 12:58:07;;;;;;;;;;;31.10;67.50;;;;;;4991852;28;20368;-66